createdAt,value
2019-05-22T00:00:33.767Z,12.23
2019-05-22T00:01:33.768Z,12.08
2019-05-22T00:02:33.756Z,12.07
2019-05-22T00:03:33.739Z,12.22
2019-05-22T00:04:33.739Z,12.13
2019-05-22T00:05:33.720Z,12.11
2019-05-22T00:06:33.826Z,12.12
2019-05-22T00:07:33.665Z,12.08
2019-05-22T00:08:33.675Z,12.08
2019-05-22T00:09:33.650Z,12.22
2019-05-22T00:10:33.651Z,12.11
2019-05-22T00:11:33.619Z,12.15
2019-05-22T00:12:46.064Z,12.11
2019-05-22T00:13:34.631Z,12.08
2019-05-22T00:14:33.585Z,12.13
2019-05-22T00:15:33.578Z,12.07
2019-05-22T00:16:33.570Z,12.15
2019-05-22T00:17:33.552Z,12.16
2019-05-22T00:18:33.543Z,12.13
2019-05-22T00:19:33.544Z,12.22
2019-05-22T00:20:33.523Z,12.15
2019-05-22T00:21:33.513Z,12.13
2019-05-22T00:22:33.520Z,12.13
2019-05-22T00:23:33.486Z,12.04
2019-05-22T00:24:33.486Z,12.08
2019-05-22T00:25:33.471Z,12.08
2019-05-22T00:26:33.457Z,12.15
2019-05-22T00:27:33.438Z,12.11
2019-05-22T00:28:33.430Z,12.18
2019-05-22T00:29:33.433Z,12.11
2019-05-22T00:30:33.425Z,12.22
2019-05-22T00:31:33.408Z,12.16
2019-05-22T00:32:33.386Z,12.11
2019-05-22T00:33:36.218Z,12.13
2019-05-22T00:34:33.391Z,12.11
2019-05-22T00:35:33.352Z,12.08
2019-05-22T00:36:33.359Z,12.29
2019-05-22T00:37:33.330Z,12.25
2019-05-22T00:38:33.320Z,12.11
2019-05-22T00:39:33.309Z,12.25
2019-05-22T00:40:33.313Z,12.15
2019-05-22T00:41:33.299Z,12.13
2019-05-22T00:42:33.277Z,12.23
2019-05-22T00:43:33.264Z,12.23
2019-05-22T00:44:33.257Z,12.18
2019-05-22T00:45:33.254Z,12.22
2019-05-22T00:46:33.231Z,12.26
2019-05-22T00:47:33.217Z,12.23
2019-05-22T00:48:33.228Z,12.26
2019-05-22T00:49:33.193Z,12.25
2019-05-22T00:50:33.194Z,12.30
2019-05-22T00:51:33.207Z,12.23
2019-05-22T00:52:33.159Z,12.19
2019-05-22T00:53:33.156Z,12.29
2019-05-22T00:54:33.139Z,12.37
2019-05-22T00:55:33.125Z,12.26
2019-05-22T00:56:33.113Z,12.34
2019-05-22T00:57:33.121Z,12.25
2019-05-22T00:58:33.102Z,12.30
2019-05-22T00:59:33.909Z,12.34
2019-05-22T01:00:34.958Z,12.40
2019-05-22T01:01:33.084Z,12.34
2019-05-22T01:02:33.068Z,12.38
2019-05-22T01:03:33.042Z,12.38
2019-05-22T01:04:33.032Z,12.31
2019-05-22T01:05:33.021Z,12.38
2019-05-22T01:06:33.024Z,12.38
2019-05-22T01:07:32.997Z,12.34
2019-05-22T01:08:32.990Z,12.37
2019-05-22T01:09:32.977Z,12.37
2019-05-22T01:10:32.967Z,12.36
2019-05-22T01:11:32.965Z,12.38
2019-05-22T01:12:32.969Z,12.36
2019-05-22T01:13:32.933Z,12.33
2019-05-22T01:14:42.514Z,12.38
2019-05-22T01:15:33.906Z,12.37
2019-05-22T01:16:32.894Z,12.37
2019-05-22T01:17:32.898Z,12.36
2019-05-22T01:18:32.917Z,12.38
2019-05-22T01:19:32.865Z,12.37
2019-05-22T01:20:32.858Z,12.36
2019-05-22T01:21:32.842Z,12.37
2019-05-22T01:22:32.843Z,12.36
2019-05-22T01:23:32.830Z,12.37
2019-05-22T01:24:32.805Z,12.34
2019-05-22T01:25:32.805Z,12.30
2019-05-22T01:26:32.803Z,12.36
2019-05-22T01:27:32.776Z,12.37
2019-05-22T01:28:32.761Z,12.38
2019-05-22T01:29:32.753Z,12.40
2019-05-22T01:30:32.737Z,12.33
2019-05-22T01:31:32.728Z,12.37
2019-05-22T01:32:32.732Z,12.38
2019-05-22T01:33:32.718Z,12.38
2019-05-22T01:34:32.703Z,12.33
2019-05-22T01:35:32.683Z,12.36
2019-05-22T01:36:32.671Z,12.33
2019-05-22T01:37:32.662Z,12.38
2019-05-22T01:38:32.662Z,12.36
2019-05-22T01:39:32.639Z,12.38
2019-05-22T01:40:32.624Z,12.36
2019-05-22T01:41:32.617Z,12.37
2019-05-22T01:42:32.644Z,12.43
2019-05-22T01:43:32.608Z,12.33
2019-05-22T01:44:32.594Z,12.34
2019-05-22T01:45:32.572Z,12.36
2019-05-22T01:46:32.561Z,12.40
2019-05-22T01:47:32.563Z,12.40
2019-05-22T01:48:32.551Z,12.40
2019-05-22T01:49:32.543Z,12.37
2019-05-22T01:50:32.515Z,12.34
2019-05-22T01:51:32.503Z,12.36
2019-05-22T01:52:32.493Z,12.36
2019-05-22T01:53:32.501Z,12.33
2019-05-22T01:54:32.473Z,12.34
2019-05-22T01:55:32.451Z,12.34
2019-05-22T01:56:32.446Z,12.38
2019-05-22T01:57:32.434Z,12.36
2019-05-22T01:58:32.451Z,12.38
2019-05-22T01:59:32.410Z,12.38
2019-05-22T02:00:32.395Z,12.37
2019-05-22T02:01:32.389Z,12.36
2019-05-22T02:02:32.375Z,12.40
2019-05-22T02:03:32.363Z,12.31
2019-05-22T02:04:32.361Z,12.34
2019-05-22T02:05:32.353Z,12.37
2019-05-22T02:06:32.332Z,12.38
2019-05-22T02:07:32.320Z,12.36
2019-05-22T02:08:32.318Z,12.30
2019-05-22T02:09:32.301Z,12.36
2019-05-22T02:10:32.320Z,12.29
2019-05-22T02:11:32.271Z,12.31
2019-05-22T02:12:32.269Z,12.31
2019-05-22T02:13:32.260Z,12.22
2019-05-22T02:14:32.237Z,12.37
2019-05-22T02:15:32.228Z,12.37
2019-05-22T02:16:32.239Z,12.30
2019-05-22T02:17:32.202Z,12.30
2019-05-22T02:18:32.195Z,12.31
2019-05-22T02:19:32.185Z,12.23
2019-05-22T02:20:32.176Z,12.23
2019-05-22T02:21:32.182Z,12.23
2019-05-22T02:22:32.151Z,12.25
2019-05-22T02:23:32.140Z,12.31
2019-05-22T02:24:32.133Z,12.26
2019-05-22T02:25:32.121Z,12.31
2019-05-22T02:26:32.105Z,12.31
2019-05-22T02:27:32.105Z,12.23
2019-05-22T02:28:32.083Z,12.30
2019-05-22T02:29:32.080Z,12.23
2019-05-22T02:30:32.087Z,12.34
2019-05-22T02:31:32.048Z,12.29
2019-05-22T02:32:32.037Z,12.23
2019-05-22T02:33:32.030Z,12.36
2019-05-22T02:34:32.029Z,12.33
2019-05-22T02:35:32.005Z,12.26
2019-05-22T02:36:32.012Z,12.26
2019-05-22T02:37:31.982Z,12.26
2019-05-22T02:38:31.974Z,12.26
2019-05-22T02:39:31.969Z,12.23
2019-05-22T02:40:31.970Z,12.23
2019-05-22T02:41:31.939Z,12.25
2019-05-22T02:42:31.947Z,12.16
2019-05-22T02:43:31.920Z,12.23
2019-05-22T02:44:31.991Z,12.19
2019-05-22T02:45:31.908Z,12.23
2019-05-22T02:46:31.926Z,12.23
2019-05-22T02:47:31.874Z,12.33
2019-05-22T02:48:32.378Z,12.29
2019-05-22T02:49:31.851Z,12.29
2019-05-22T02:50:31.841Z,12.21
2019-05-22T02:51:31.842Z,12.23
2019-05-22T02:52:31.816Z,12.31
2019-05-22T02:53:31.801Z,12.25
2019-05-22T02:54:31.809Z,12.30
2019-05-22T02:55:31.783Z,12.11
2019-05-22T02:56:31.787Z,12.21
2019-05-22T02:57:31.762Z,12.08
2019-05-22T02:58:31.768Z,12.18
2019-05-22T02:59:31.739Z,12.12
2019-05-22T03:00:31.722Z,12.11
2019-05-22T03:01:31.725Z,12.23
2019-05-22T03:02:31.714Z,12.08
2019-05-22T03:03:31.689Z,12.08
2019-05-22T03:04:31.684Z,12.16
2019-05-22T03:05:31.671Z,12.08
2019-05-22T03:06:31.657Z,12.08
2019-05-22T03:07:31.849Z,12.11
2019-05-22T03:08:31.633Z,12.04
2019-05-22T03:09:31.623Z,12.08
2019-05-22T03:10:31.619Z,12.01
2019-05-22T03:11:35.175Z,12.01
2019-05-22T03:12:31.593Z,12.04
2019-05-22T03:13:31.598Z,12.00
2019-05-22T03:14:31.569Z,11.98
2019-05-22T03:15:31.560Z,11.96
2019-05-22T03:16:31.544Z,11.93
2019-05-22T03:17:31.569Z,12.03
2019-05-22T03:18:31.523Z,11.94
2019-05-22T03:19:31.527Z,11.90
2019-05-22T03:20:31.507Z,11.96
2019-05-22T03:21:31.489Z,11.90
2019-05-22T03:22:31.490Z,11.93
2019-05-22T03:23:31.465Z,11.94
2019-05-22T03:24:31.469Z,11.90
2019-05-22T03:25:31.444Z,11.88
2019-05-22T03:26:31.431Z,11.94
2019-05-22T03:27:31.425Z,11.93
2019-05-22T03:28:31.421Z,11.82
2019-05-22T03:29:31.421Z,11.96
2019-05-22T03:30:31.392Z,11.88
2019-05-22T03:31:31.525Z,11.90
2019-05-22T03:32:31.369Z,11.93
2019-05-22T03:33:31.359Z,11.84
2019-05-22T03:34:31.358Z,11.85
2019-05-22T03:35:31.511Z,11.81
2019-05-22T03:36:31.327Z,11.75
2019-05-22T03:37:31.311Z,11.84
2019-05-22T03:38:31.297Z,11.82
2019-05-22T03:39:31.299Z,11.94
2019-05-22T03:40:31.276Z,11.74
2019-05-22T03:41:31.263Z,11.81
2019-05-22T03:42:31.261Z,11.78
2019-05-22T03:43:31.241Z,11.85
2019-05-22T03:44:31.245Z,11.79
2019-05-22T03:45:31.220Z,11.74
2019-05-22T03:46:31.208Z,11.81
2019-05-22T03:47:31.208Z,11.70
2019-05-22T03:48:31.210Z,11.77
2019-05-22T03:49:31.557Z,11.72
2019-05-22T03:50:31.172Z,11.70
2019-05-22T03:51:31.168Z,11.78
2019-05-22T03:52:31.145Z,11.72
2019-05-22T03:53:31.135Z,11.77
2019-05-22T03:54:31.122Z,11.74
2019-05-22T03:55:31.109Z,11.69
2019-05-22T03:56:31.117Z,11.79
2019-05-22T03:57:31.097Z,11.81
2019-05-22T03:58:31.089Z,11.74
2019-05-22T03:59:31.084Z,11.75
2019-05-22T04:00:31.066Z,11.74
2019-05-22T04:01:31.056Z,11.66
2019-05-22T04:02:31.041Z,11.64
2019-05-22T04:03:31.022Z,11.70
2019-05-22T04:04:31.009Z,11.77
2019-05-22T04:05:31.018Z,11.70
2019-05-22T04:06:31.000Z,11.69
2019-05-22T04:07:30.979Z,11.70
2019-05-22T04:08:30.971Z,11.60
2019-05-22T04:09:30.951Z,11.70
2019-05-22T04:10:30.959Z,11.56
2019-05-22T04:11:30.932Z,11.67
2019-05-22T04:12:30.917Z,11.67
2019-05-22T04:13:30.919Z,11.66
2019-05-22T04:14:30.895Z,11.69
2019-05-22T04:15:30.896Z,11.67
2019-05-22T04:16:30.871Z,11.66
2019-05-22T04:17:30.863Z,11.63
2019-05-22T04:18:30.853Z,11.66
2019-05-22T04:19:47.701Z,11.63
2019-05-22T04:20:31.841Z,11.59
2019-05-22T04:21:30.818Z,11.69
2019-05-22T04:22:30.807Z,11.60
2019-05-22T04:23:30.795Z,11.57
2019-05-22T04:24:30.784Z,11.59
2019-05-22T04:25:30.863Z,11.56
2019-05-22T04:26:30.764Z,11.62
2019-05-22T04:27:30.762Z,11.56
2019-05-22T04:28:30.739Z,11.57
2019-05-22T04:29:30.740Z,11.51
2019-05-22T04:30:30.722Z,11.54
2019-05-22T04:31:30.717Z,11.54
2019-05-22T04:32:30.702Z,11.48
2019-05-22T04:33:30.730Z,11.56
2019-05-22T04:34:30.671Z,11.57
2019-05-22T04:35:30.667Z,11.53
2019-05-22T04:36:30.666Z,11.51
2019-05-22T04:37:30.636Z,11.51
2019-05-22T04:38:30.627Z,11.49
2019-05-22T04:39:30.615Z,11.45
2019-05-22T04:40:30.618Z,11.45
2019-05-22T04:41:30.605Z,11.48
2019-05-22T04:42:30.582Z,11.51
2019-05-22T04:43:30.569Z,11.49
2019-05-22T04:44:30.564Z,11.51
2019-05-22T04:45:30.550Z,11.51
2019-05-22T04:46:30.555Z,11.51
2019-05-22T04:47:30.538Z,11.49
2019-05-22T04:48:30.518Z,11.49
2019-05-22T04:49:30.502Z,11.45
2019-05-22T04:50:30.497Z,11.46
2019-05-22T04:51:30.490Z,11.48
2019-05-22T04:52:30.485Z,11.44
2019-05-22T04:53:30.461Z,11.46
2019-05-22T04:54:30.444Z,11.44
2019-05-22T04:55:30.438Z,11.49
2019-05-22T04:56:30.426Z,11.48
2019-05-22T04:57:30.425Z,11.51
2019-05-22T04:58:30.401Z,11.56
2019-05-22T04:59:30.404Z,11.56
2019-05-22T05:00:30.390Z,11.49
2019-05-22T05:01:30.371Z,11.45
2019-05-22T05:02:30.378Z,11.49
2019-05-22T05:03:30.359Z,11.59
2019-05-22T05:04:30.340Z,11.54
2019-05-22T05:05:30.327Z,11.49
2019-05-22T05:06:30.311Z,11.49
2019-05-22T05:07:30.302Z,11.45
2019-05-22T05:08:30.325Z,11.46
2019-05-22T05:09:30.277Z,11.39
2019-05-22T05:10:30.264Z,11.45
2019-05-22T05:11:30.253Z,11.41
2019-05-22T05:12:30.240Z,11.41
2019-05-22T05:13:30.234Z,11.45
2019-05-22T05:14:30.236Z,11.41
2019-05-22T05:15:30.209Z,11.36
2019-05-22T05:16:30.196Z,11.31
2019-05-22T05:17:30.202Z,11.31
2019-05-22T05:18:30.177Z,11.31
2019-05-22T05:19:30.184Z,11.38
2019-05-22T05:20:30.157Z,11.31
2019-05-22T05:21:30.143Z,11.45
2019-05-22T05:22:30.132Z,11.27
2019-05-22T05:23:30.156Z,11.36
2019-05-22T05:24:30.111Z,11.36
2019-05-22T05:25:30.096Z,11.26
2019-05-22T05:26:30.084Z,11.35
2019-05-22T05:27:30.088Z,11.30
2019-05-22T05:28:30.062Z,11.31
2019-05-22T05:29:30.069Z,11.23
2019-05-22T05:30:30.040Z,11.23
2019-05-22T05:31:30.076Z,11.24
2019-05-22T05:32:30.021Z,11.26
2019-05-22T05:33:30.026Z,11.28
2019-05-22T05:34:30.012Z,11.28
2019-05-22T05:35:29.989Z,11.26
2019-05-22T05:36:29.976Z,11.21
2019-05-22T05:37:29.976Z,11.16
2019-05-22T05:38:29.953Z,11.13
2019-05-22T05:39:29.961Z,11.11
2019-05-22T05:40:29.937Z,11.24
2019-05-22T05:41:29.919Z,11.19
2019-05-22T05:42:29.911Z,11.12
2019-05-22T05:43:29.902Z,11.20
2019-05-22T05:44:29.891Z,11.23
2019-05-22T05:45:29.887Z,11.17
2019-05-22T05:46:29.862Z,11.16
2019-05-22T05:47:29.856Z,11.21
2019-05-22T05:48:29.844Z,11.13
2019-05-22T05:49:29.833Z,11.16
2019-05-22T05:50:38.973Z,11.17
2019-05-22T05:51:30.812Z,11.16
2019-05-22T05:52:29.814Z,11.06
2019-05-22T05:53:29.787Z,11.06
2019-05-22T05:54:30.424Z,11.05
2019-05-22T05:55:29.788Z,11.08
2019-05-22T05:56:29.751Z,11.03
2019-05-22T05:57:29.747Z,11.09
2019-05-22T05:58:30.168Z,10.93
2019-05-22T05:59:29.718Z,10.99
2019-05-22T06:00:29.711Z,10.93
2019-05-22T06:01:29.738Z,10.93
2019-05-22T06:02:29.686Z,10.93
2019-05-22T06:03:29.678Z,10.95
2019-05-22T06:04:34.826Z,10.94
2019-05-22T06:05:30.661Z,10.90
2019-05-22T06:06:29.641Z,10.91
2019-05-22T06:07:29.643Z,10.84
2019-05-22T06:08:29.637Z,10.84
2019-05-22T06:09:29.608Z,10.88
2019-05-22T06:10:29.641Z,10.87
2019-05-22T06:11:29.591Z,10.83
2019-05-22T06:12:29.573Z,10.93
2019-05-22T06:13:29.574Z,10.90
2019-05-22T06:14:29.553Z,10.87
2019-05-22T06:15:45.626Z,10.83
2019-05-22T06:16:30.625Z,10.78
2019-05-22T06:17:29.521Z,10.81
2019-05-22T06:18:29.539Z,10.84
2019-05-22T06:19:29.552Z,10.80
2019-05-22T06:20:29.532Z,10.86
2019-05-22T06:21:29.474Z,10.88
2019-05-22T06:22:29.466Z,10.91
2019-05-22T06:23:29.459Z,10.88
2019-05-22T06:24:29.562Z,10.86
2019-05-22T06:25:29.465Z,10.90
2019-05-22T06:26:29.432Z,10.83
2019-05-22T06:27:29.415Z,10.88
2019-05-22T06:28:29.399Z,10.87
2019-05-22T06:29:29.817Z,10.90
2019-05-22T06:30:29.386Z,10.88
2019-05-22T06:31:29.365Z,10.80
2019-05-22T06:32:29.369Z,10.94
2019-05-22T06:33:29.346Z,10.93
2019-05-22T06:34:29.330Z,10.94
2019-05-22T06:35:29.344Z,10.98
2019-05-22T06:36:29.307Z,10.98
2019-05-22T06:37:29.299Z,11.05
2019-05-22T06:38:29.285Z,11.01
2019-05-22T06:39:29.277Z,11.05
2019-05-22T06:40:29.316Z,11.11
2019-05-22T06:41:29.257Z,11.05
2019-05-22T06:42:29.242Z,11.02
2019-05-22T06:43:29.243Z,11.11
2019-05-22T06:44:29.220Z,11.09
2019-05-22T06:45:29.210Z,11.12
2019-05-22T06:46:29.231Z,11.11
2019-05-22T06:47:29.217Z,11.13
2019-05-22T06:48:29.176Z,11.16
2019-05-22T06:49:29.166Z,11.12
2019-05-22T06:50:29.158Z,11.13
2019-05-22T06:51:29.138Z,11.21
2019-05-22T06:52:29.134Z,11.20
2019-05-22T06:53:29.130Z,11.24
2019-05-22T06:54:29.105Z,11.31
2019-05-22T06:55:29.100Z,11.31
2019-05-22T06:56:29.100Z,11.28
2019-05-22T06:57:29.074Z,11.36
2019-05-22T06:58:29.079Z,11.35
2019-05-22T06:59:29.059Z,11.38
2019-05-22T07:00:29.040Z,11.36
2019-05-22T07:01:29.033Z,11.41
2019-05-22T07:02:29.031Z,11.49
2019-05-22T07:03:29.027Z,11.48
2019-05-22T07:04:29.076Z,11.48
2019-05-22T07:05:28.988Z,11.42
2019-05-22T07:06:28.975Z,11.45
2019-05-22T07:07:28.966Z,11.53
2019-05-22T07:08:28.952Z,11.51
2019-05-22T07:09:28.952Z,11.53
2019-05-22T07:10:28.992Z,11.63
2019-05-22T07:11:28.913Z,11.59
2019-05-22T07:12:28.922Z,11.53
2019-05-22T07:13:28.900Z,11.64
2019-05-22T07:14:28.888Z,11.70
2019-05-22T07:15:28.882Z,11.67
2019-05-22T07:16:28.858Z,11.74
2019-05-22T07:17:28.857Z,11.78
2019-05-22T07:18:28.851Z,11.74
2019-05-22T07:19:28.835Z,11.79
2019-05-22T07:20:28.840Z,11.87
2019-05-22T07:21:34.039Z,11.93
2019-05-22T07:22:30.015Z,11.90
2019-05-22T07:23:28.784Z,11.96
2019-05-22T07:24:28.775Z,11.97
2019-05-22T07:25:28.783Z,11.94
2019-05-22T07:26:28.752Z,12.07
2019-05-22T07:27:28.774Z,12.00
2019-05-22T07:28:28.729Z,11.98
2019-05-22T07:29:28.723Z,12.01
2019-05-22T07:30:28.701Z,12.01
2019-05-22T07:31:28.695Z,11.97
2019-05-22T07:32:31.078Z,12.03
2019-05-22T07:33:28.733Z,12.08
2019-05-22T07:34:28.659Z,12.15
2019-05-22T07:35:45.609Z,12.12
2019-05-22T07:36:29.636Z,12.12
2019-05-22T07:37:28.627Z,12.15
2019-05-22T07:38:28.629Z,12.07
2019-05-22T07:39:28.601Z,12.15
2019-05-22T07:40:28.611Z,12.15
2019-05-22T07:41:28.586Z,12.12
2019-05-22T07:42:28.576Z,12.23
2019-05-22T07:43:28.573Z,12.21
2019-05-22T07:44:28.546Z,12.29
2019-05-22T07:45:28.537Z,12.29
2019-05-22T07:46:30.981Z,12.25
2019-05-22T07:47:28.529Z,12.26
2019-05-22T07:48:28.522Z,12.23
2019-05-22T07:49:28.490Z,12.29
2019-05-22T07:50:28.482Z,12.36
2019-05-22T07:51:28.467Z,12.41
2019-05-22T07:52:28.458Z,12.40
2019-05-22T07:53:28.473Z,12.34
2019-05-22T07:54:28.439Z,12.37
2019-05-22T07:55:28.422Z,12.36
2019-05-22T07:56:28.413Z,12.34
2019-05-22T07:57:28.402Z,12.34
2019-05-22T07:58:28.416Z,12.48
2019-05-22T07:59:28.396Z,12.34
2019-05-22T08:00:28.371Z,12.40
2019-05-22T08:01:28.362Z,12.43
2019-05-22T08:02:28.348Z,12.49
2019-05-22T08:03:28.348Z,12.49
2019-05-22T08:04:28.323Z,12.52
2019-05-22T08:05:28.353Z,12.46
2019-05-22T08:06:28.304Z,12.51
2019-05-22T08:07:28.290Z,12.49
2019-05-22T08:08:28.349Z,12.49
2019-05-22T08:09:28.269Z,12.51
2019-05-22T08:10:28.260Z,12.49
2019-05-22T08:11:28.246Z,12.49
2019-05-22T08:12:28.243Z,12.58
2019-05-22T08:13:28.324Z,12.49
2019-05-22T08:14:28.211Z,12.49
2019-05-22T08:15:28.204Z,12.54
2019-05-22T08:16:28.193Z,12.62
2019-05-22T08:17:28.177Z,12.62
2019-05-22T08:18:28.166Z,12.67
2019-05-22T08:19:28.235Z,12.63
2019-05-22T08:20:28.153Z,12.77
2019-05-22T08:21:28.145Z,12.77
2019-05-22T08:22:28.124Z,12.85
2019-05-22T08:23:28.114Z,12.73
2019-05-22T08:24:28.102Z,12.79
2019-05-22T08:25:28.090Z,12.79
2019-05-22T08:26:28.090Z,12.81
2019-05-22T08:27:28.068Z,12.89
2019-05-22T08:28:28.059Z,12.91
2019-05-22T08:29:28.089Z,12.88
2019-05-22T08:30:28.035Z,12.99
2019-05-22T08:31:28.056Z,12.92
2019-05-22T08:32:28.014Z,12.91
2019-05-22T08:33:28.008Z,12.87
2019-05-22T08:34:28.001Z,12.89
2019-05-22T08:35:27.985Z,12.91
2019-05-22T08:36:27.965Z,12.88
2019-05-22T08:37:28.030Z,12.91
2019-05-22T08:38:27.955Z,12.92
2019-05-22T08:39:27.936Z,12.92
2019-05-22T08:40:27.925Z,12.98
2019-05-22T08:41:27.915Z,12.96
2019-05-22T08:42:27.918Z,12.96
2019-05-22T08:43:27.893Z,12.98
2019-05-22T08:44:27.881Z,12.95
2019-05-22T08:45:27.866Z,12.98
2019-05-22T08:46:27.869Z,12.91
2019-05-22T08:47:27.845Z,12.87
2019-05-22T08:48:27.849Z,12.88
2019-05-22T08:49:27.825Z,13.04
2019-05-22T08:50:27.828Z,12.92
2019-05-22T08:51:27.813Z,12.92
2019-05-22T08:52:27.790Z,12.88
2019-05-22T08:53:27.785Z,12.85
2019-05-22T08:54:27.767Z,12.87
2019-05-22T08:55:27.764Z,12.80
2019-05-22T08:56:27.764Z,12.88
2019-05-22T08:57:27.749Z,12.80
2019-05-22T08:58:27.736Z,12.88
2019-05-22T08:59:27.728Z,12.91
2019-05-22T09:00:27.706Z,12.88
2019-05-22T09:01:27.695Z,12.92
2019-05-22T09:02:27.679Z,12.91
2019-05-22T09:03:27.685Z,12.80
2019-05-22T09:04:27.658Z,12.87
2019-05-22T09:05:27.657Z,12.89
2019-05-22T09:06:27.637Z,12.89
2019-05-22T09:07:27.643Z,12.89
2019-05-22T09:08:27.610Z,12.92
2019-05-22T09:09:27.623Z,12.89
2019-05-22T09:10:27.590Z,12.98
2019-05-22T09:11:27.586Z,12.88
2019-05-22T09:12:27.578Z,12.89
2019-05-22T09:13:27.575Z,12.87
2019-05-22T09:14:27.566Z,12.87
2019-05-22T09:15:27.541Z,12.89
2019-05-22T09:16:27.528Z,12.88
2019-05-22T09:17:27.530Z,12.88
2019-05-22T09:18:27.499Z,12.88
2019-05-22T09:19:27.489Z,12.87
2019-05-22T09:20:27.477Z,12.87
2019-05-22T09:21:27.464Z,12.95
2019-05-22T09:22:40.049Z,12.92
2019-05-22T09:23:28.450Z,12.96
2019-05-22T09:24:27.631Z,12.96
2019-05-22T09:25:27.435Z,13.03
2019-05-22T09:26:27.409Z,12.96
2019-05-22T09:27:27.414Z,12.95
2019-05-22T09:28:27.447Z,12.91
2019-05-22T09:29:27.391Z,12.99
2019-05-22T09:30:27.385Z,12.99
2019-05-22T09:31:27.356Z,12.84
2019-05-22T09:32:27.344Z,12.91
2019-05-22T09:33:27.333Z,12.88
2019-05-22T09:34:27.334Z,12.91
2019-05-22T09:35:27.321Z,12.91
2019-05-22T09:36:27.300Z,13.03
2019-05-22T09:37:27.296Z,13.04
2019-05-22T09:38:27.276Z,13.13
2019-05-22T09:39:27.339Z,13.09
2019-05-22T09:40:27.254Z,13.04
2019-05-22T09:41:27.248Z,13.04
2019-05-22T09:42:27.237Z,13.12
2019-05-22T09:43:27.223Z,13.01
2019-05-22T09:44:27.229Z,13.01
2019-05-22T09:45:27.199Z,13.13
2019-05-22T09:46:27.211Z,13.09
2019-05-22T09:47:27.177Z,12.99
2019-05-22T09:48:27.174Z,12.98
2019-05-22T09:49:27.221Z,13.04
2019-05-22T09:50:27.145Z,12.99
2019-05-22T09:51:27.148Z,13.03
2019-05-22T09:52:27.124Z,13.19
2019-05-22T09:53:27.119Z,13.22
2019-05-22T09:54:27.100Z,13.39
2019-05-22T09:55:27.102Z,13.46
2019-05-22T09:56:27.085Z,13.35
2019-05-22T09:57:27.085Z,13.36
2019-05-22T09:58:27.095Z,13.35
2019-05-22T09:59:27.048Z,13.35
2019-05-22T10:00:27.054Z,13.32
2019-05-22T10:01:27.046Z,13.28
2019-05-22T10:02:27.033Z,13.38
2019-05-22T10:03:27.011Z,13.46
2019-05-22T10:04:27.004Z,13.36
2019-05-22T10:05:26.990Z,13.36
2019-05-22T10:06:26.983Z,13.41
2019-05-22T10:07:26.967Z,13.32
2019-05-22T10:08:26.952Z,13.47
2019-05-22T10:09:26.940Z,13.51
2019-05-22T10:10:26.935Z,13.59
2019-05-22T10:11:26.914Z,13.61
2019-05-22T10:12:26.900Z,13.59
2019-05-22T10:13:29.130Z,13.62
2019-05-22T10:14:26.885Z,13.61
2019-05-22T10:15:27.334Z,13.57
2019-05-22T10:16:26.855Z,13.63
2019-05-22T10:17:26.847Z,13.68
2019-05-22T10:18:26.835Z,13.72
2019-05-22T10:19:26.869Z,13.75
2019-05-22T10:20:26.822Z,13.72
2019-05-22T10:21:26.801Z,13.75
2019-05-22T10:22:26.797Z,13.68
2019-05-22T10:23:26.781Z,13.68
2019-05-22T10:24:26.800Z,13.75
2019-05-22T10:25:26.755Z,13.69
2019-05-22T10:26:26.744Z,13.76
2019-05-22T10:27:26.738Z,13.79
2019-05-22T10:28:26.736Z,13.90
2019-05-22T10:29:26.714Z,14.06
2019-05-22T10:30:26.711Z,14.09
2019-05-22T10:31:26.721Z,14.16
2019-05-22T10:32:31.656Z,14.13
2019-05-22T10:33:27.666Z,14.13
2019-05-22T10:34:26.654Z,14.19
2019-05-22T10:35:26.647Z,14.16
2019-05-22T10:36:26.637Z,14.19
2019-05-22T10:37:26.635Z,14.21
2019-05-22T10:38:26.639Z,14.31
2019-05-22T10:39:26.625Z,14.38
2019-05-22T10:40:26.597Z,14.36
2019-05-22T10:41:26.577Z,14.39
2019-05-22T10:42:26.597Z,14.42
2019-05-22T10:43:26.562Z,14.54
2019-05-22T10:44:26.547Z,14.54
2019-05-22T10:45:26.550Z,14.53
2019-05-22T10:46:26.523Z,14.49
2019-05-22T10:47:26.515Z,14.46
2019-05-22T10:48:26.503Z,14.41
2019-05-22T10:49:26.506Z,14.46
2019-05-22T10:50:26.497Z,14.44
2019-05-22T10:51:26.485Z,14.44
2019-05-22T10:52:26.460Z,14.63
2019-05-22T10:53:33.488Z,14.74
2019-05-22T10:54:27.434Z,14.75
2019-05-22T10:55:26.430Z,14.97
2019-05-22T10:56:26.426Z,14.75
2019-05-22T10:57:26.406Z,14.74
2019-05-22T10:58:26.395Z,14.80
2019-05-22T10:59:26.395Z,14.87
2019-05-22T11:00:26.379Z,14.85
2019-05-22T11:01:26.392Z,14.97
2019-05-22T11:02:26.350Z,14.85
2019-05-22T11:03:26.343Z,14.87
2019-05-22T11:04:27.119Z,14.86
2019-05-22T11:05:26.334Z,15.04
2019-05-22T11:06:26.307Z,15.01
2019-05-22T11:07:26.296Z,15.05
2019-05-22T11:08:30.330Z,15.15
2019-05-22T11:09:27.275Z,15.27
2019-05-22T11:10:26.270Z,15.30
2019-05-22T11:11:26.255Z,15.49
2019-05-22T11:12:26.241Z,15.52
2019-05-22T11:13:26.242Z,15.68
2019-05-22T11:14:26.223Z,15.84
2019-05-22T11:15:26.211Z,15.99
2019-05-22T11:16:26.217Z,16.23
2019-05-22T11:17:26.189Z,16.40
2019-05-22T11:18:26.180Z,16.66
2019-05-22T11:19:26.171Z,16.82
2019-05-22T11:20:26.168Z,16.92
2019-05-22T11:21:26.162Z,17.18
2019-05-22T11:22:26.137Z,17.43
2019-05-22T11:23:26.148Z,17.54
2019-05-22T11:24:26.118Z,17.58
2019-05-22T11:25:26.112Z,17.62
2019-05-22T11:26:26.134Z,17.51
2019-05-22T11:27:26.090Z,17.54
2019-05-22T11:28:26.123Z,17.55
2019-05-22T11:29:26.144Z,17.65
2019-05-22T11:30:26.108Z,17.77
2019-05-22T11:31:26.066Z,17.81
2019-05-22T11:32:26.046Z,17.76
2019-05-22T11:33:26.048Z,17.71
2019-05-22T11:34:26.068Z,17.81
2019-05-22T11:35:26.016Z,17.98
2019-05-22T11:36:26.080Z,18.02
2019-05-22T11:37:25.988Z,18.04
2019-05-22T11:38:26.024Z,18.04
2019-05-22T11:39:38.639Z,18.14
2019-05-22T11:40:26.957Z,18.25
2019-05-22T11:41:25.952Z,18.29
2019-05-22T11:42:25.941Z,18.50
2019-05-22T11:43:25.941Z,18.53
2019-05-22T11:44:25.954Z,18.39
2019-05-22T11:45:25.932Z,18.29
2019-05-22T11:46:25.900Z,18.14
2019-05-22T11:47:25.951Z,17.96
2019-05-22T11:48:25.886Z,17.98
2019-05-22T11:49:25.892Z,18.05
2019-05-22T11:50:25.876Z,18.09
2019-05-22T11:51:25.855Z,18.31
2019-05-22T11:52:25.847Z,18.50
2019-05-22T11:53:25.828Z,18.71
2019-05-22T11:54:25.821Z,18.90
2019-05-22T11:55:42.563Z,18.94
2019-05-22T11:56:26.799Z,19.05
2019-05-22T11:57:25.802Z,19.09
2019-05-22T11:58:25.779Z,19.23
2019-05-22T11:59:25.771Z,19.45
2019-05-22T12:00:25.779Z,19.39
2019-05-22T12:01:25.751Z,19.45
2019-05-22T12:02:25.739Z,19.43
2019-05-22T12:03:25.747Z,19.46
2019-05-22T12:04:25.765Z,19.30
2019-05-22T12:05:25.711Z,19.30
2019-05-22T12:06:25.706Z,19.25
2019-05-22T12:07:25.686Z,19.17
2019-05-22T12:08:25.688Z,19.07
2019-05-22T12:09:25.668Z,19.12
2019-05-22T12:10:25.734Z,19.21
2019-05-22T12:11:25.663Z,19.24
2019-05-22T12:12:25.636Z,19.38
2019-05-22T12:13:25.649Z,19.52
2019-05-22T12:14:25.616Z,19.80
2019-05-22T12:15:25.619Z,19.78
2019-05-22T12:16:25.594Z,19.75
2019-05-22T12:17:37.429Z,19.72
2019-05-22T12:18:26.642Z,19.76
2019-05-22T12:19:25.587Z,19.67
2019-05-22T12:20:25.560Z,19.71
2019-05-22T12:21:25.545Z,19.82
2019-05-22T12:22:25.540Z,19.82
2019-05-22T12:23:25.568Z,20.05
2019-05-22T12:24:30.274Z,20.12
2019-05-22T12:25:26.515Z,20.16
2019-05-22T12:26:25.524Z,20.27
2019-05-22T12:27:25.569Z,20.07
2019-05-22T12:28:25.489Z,20.05
2019-05-22T12:29:25.499Z,20.23
2019-05-22T12:30:25.466Z,20.38
2019-05-22T12:31:25.447Z,20.40
2019-05-22T12:32:25.444Z,20.57
2019-05-22T12:33:25.427Z,20.56
2019-05-22T12:34:25.436Z,20.37
2019-05-22T12:35:25.410Z,20.41
2019-05-22T12:36:25.401Z,20.20
2019-05-22T12:37:25.396Z,20.26
2019-05-22T12:38:27.155Z,20.46
2019-05-22T12:39:25.379Z,20.54
2019-05-22T12:40:25.370Z,20.35
2019-05-22T12:41:25.351Z,20.07
2019-05-22T12:42:25.340Z,20.08
2019-05-22T12:43:25.329Z,20.23
2019-05-22T12:44:25.319Z,20.10
2019-05-22T12:45:25.323Z,19.80
2019-05-22T12:46:25.295Z,19.55
2019-05-22T12:47:25.284Z,19.24
2019-05-22T12:48:25.278Z,18.94
2019-05-22T12:49:25.268Z,18.76
2019-05-22T12:50:25.298Z,18.65
2019-05-22T12:51:25.247Z,18.75
2019-05-22T12:52:25.236Z,18.86